SBCT/CWB METAR and TAF weather

Enter ICAO airport designator
Station Type Date Time Source
SBCT METAR 2024/06/14 03:00 UTC NOAA

SBCT 140300Z 04006KT CAVOK 15/09 Q1018


Station Type Date Time Source
SBCT Decoded METAR 2024/06/14 03:00 UTC NOAA

Curitiba Aeroporto , Brazil (SBCT) 25-31S 049-10W 908M
Jun 13, 2024 - 11:00 PM EDT / 2024.06.14 0300 UTC
Wind: from the NE (040 degrees) at 7 MPH (6 KT):0
Visibility: greater than 7 mile(s):0
Temperature: 59 F (15 C)
Dew Point: 48 F (9 C)
Relative Humidity: 67%
Pressure (altimeter): 30.06 in. Hg (1018 hPa)
ob: SBCT 140300Z 04006KT CAVOK 15/09 Q1018
cycle: 3

Station Type Date Time Source
SBCT TAF 2024/06/14 06:11 UTC NOAA